sensor_id;sensor_type;location;lat;lon;timestamp;pressure;altitude;pressure_sealevel;temperature;humidity
29417;BME280;28421;51.030;4.006;2023-02-02T00:01:36;102414.44;;;8.15;72.19
29417;BME280;28421;51.030;4.006;2023-02-02T00:04:02;102456.31;;;8.40;72.59
29417;BME280;28421;51.030;4.006;2023-02-02T00:06:29;102421.50;;;8.16;72.35
29417;BME280;28421;51.030;4.006;2023-02-02T00:08:57;102456.84;;;8.57;72.44
29417;BME280;28421;51.030;4.006;2023-02-02T00:11:23;102439.91;;;8.10;73.00
29417;BME280;28421;51.030;4.006;2023-02-02T00:13:49;102397.84;;;7.99;72.50
29417;BME280;28421;51.030;4.006;2023-02-02T00:16:34;102419.91;;;8.03;73.20
29417;BME280;28421;51.030;4.006;2023-02-02T00:19:12;102403.97;;;8.01;73.44
29417;BME280;28421;51.030;4.006;2023-02-02T00:21:38;102415.44;;;8.14;72.96
29417;BME280;28421;51.030;4.006;2023-02-02T00:24:05;102466.75;;;8.32;73.30
29417;BME280;28421;51.030;4.006;2023-02-02T00:26:31;102442.63;;;8.32;73.22
29417;BME280;28421;51.030;4.006;2023-02-02T00:28:57;102467.22;;;8.26;73.81
29417;BME280;28421;51.030;4.006;2023-02-02T00:31:22;102437.56;;;8.05;73.83
29417;BME280;28421;51.030;4.006;2023-02-02T05:34:51;102482.56;;;7.89;75.89
29417;BME280;28421;51.030;4.006;2023-02-02T05:37:16;102493.25;;;7.89;76.01
29417;BME280;28421;51.030;4.006;2023-02-02T05:39:41;102489.59;;;7.90;76.02
29417;BME280;28421;51.030;4.006;2023-02-02T05:42:07;102491.00;;;7.71;75.91
29417;BME280;28421;51.030;4.006;2023-02-02T05:44:32;102507.31;;;8.04;75.48
29417;BME280;28421;51.030;4.006;2023-02-02T05:46:58;102495.59;;;7.93;75.29
29417;BME280;28421;51.030;4.006;2023-02-02T05:49:23;102493.06;;;8.03;75.51
29417;BME280;28421;51.030;4.006;2023-02-02T05:51:53;102527.59;;;8.19;75.21
29417;BME280;28421;51.030;4.006;2023-02-02T05:54:19;102517.59;;;8.10;75.08
29417;BME280;28421;51.030;4.006;2023-02-02T05:56:51;102473.53;;;7.90;74.94
29417;BME280;28421;51.030;4.006;2023-02-02T05:59:17;102537.56;;;8.17;75.06
29417;BME280;28421;51.030;4.006;2023-02-02T06:01:44;102525.41;;;8.13;75.25
29417;BME280;28421;51.030;4.006;2023-02-02T06:04:10;102456.19;;;7.71;75.29
29417;BME280;28421;51.030;4.006;2023-02-02T06:06:35;102504.28;;;8.08;74.96
29417;BME280;28421;51.030;4.006;2023-02-02T06:09:03;102530.44;;;8.29;74.94
29417;BME280;28421;51.030;4.006;2023-02-02T06:11:28;102539.22;;;8.31;74.93
29417;BME280;28421;51.030;4.006;2023-02-02T06:13:54;102504.41;;;8.07;75.08
29417;BME280;28421;51.030;4.006;2023-02-02T06:16:20;102486.22;;;7.99;74.24
29417;BME280;28421;51.030;4.006;2023-02-02T06:18:46;102491.59;;;7.99;75.00
29417;BME280;28421;51.030;4.006;2023-02-02T06:21:13;102541.72;;;8.21;75.04
29417;BME280;28421;51.030;4.006;2023-02-02T06:23:38;102531.31;;;8.05;74.97
29417;BME280;28421;51.030;4.006;2023-02-02T06:26:11;102542.34;;;8.25;75.18
29417;BME280;28421;51.030;4.006;2023-02-02T06:28:36;102491.06;;;7.70;76.17
29417;BME280;28421;51.030;4.006;2023-02-02T06:31:03;102537.81;;;8.14;75.60
29417;BME280;28421;51.030;4.006;2023-02-02T06:33:29;102490.09;;;7.71;75.89
29417;BME280;28421;51.030;4.006;2023-02-02T06:35:58;102522.44;;;8.05;75.83
29417;BME280;28421;51.030;4.006;2023-02-02T06:38:24;102523.09;;;7.95;76.04
29417;BME280;28421;51.030;4.006;2023-02-02T06:40:49;102530.00;;;8.11;75.84
29417;BME280;28421;51.030;4.006;2023-02-02T06:43:14;102541.19;;;8.05;75.66
29417;BME280;28421;51.030;4.006;2023-02-02T06:45:40;102504.88;;;8.01;75.58
29417;BME280;28421;51.030;4.006;2023-02-02T06:48:06;102499.56;;;7.88;75.35
29417;BME280;28421;51.030;4.006;2023-02-02T06:50:36;102538.09;;;7.98;75.63
29417;BME280;28421;51.030;4.006;2023-02-02T06:53:02;102545.84;;;8.14;75.22
29417;BME280;28421;51.030;4.006;2023-02-02T06:55:27;102557.34;;;8.03;75.38
29417;BME280;28421;51.030;4.006;2023-02-02T06:57:57;102565.84;;;8.21;74.99
29417;BME280;28421;51.030;4.006;2023-02-02T07:00:23;102576.84;;;8.29;75.01
29417;BME280;28421;51.030;4.006;2023-02-02T07:02:49;102578.50;;;8.19;75.25
29417;BME280;28421;51.030;4.006;2023-02-02T07:05:14;102542.13;;;8.04;74.92
29417;BME280;28421;51.030;4.006;2023-02-02T07:07:40;102525.50;;;7.87;74.87
29417;BME280;28421;51.030;4.006;2023-02-02T07:10:05;102571.81;;;8.13;74.80
29417;BME280;28421;51.030;4.006;2023-02-02T07:12:31;102550.59;;;8.10;74.90
29417;BME280;28421;51.030;4.006;2023-02-02T07:14:56;102570.75;;;8.27;74.66
29417;BME280;28421;51.030;4.006;2023-02-02T07:17:23;102572.59;;;8.27;74.27
29417;BME280;28421;51.030;4.006;2023-02-02T07:19:49;102552.28;;;8.11;74.44
29417;BME280;28421;51.030;4.006;2023-02-02T07:22:14;102588.44;;;8.30;75.00
29417;BME280;28421;51.030;4.006;2023-02-02T07:24:40;102531.81;;;7.86;74.57
29417;BME280;28421;51.030;4.006;2023-02-02T07:27:05;102550.59;;;8.10;74.60
29417;BME280;28421;51.030;4.006;2023-02-02T07:29:31;102584.66;;;8.32;74.45
29417;BME280;28421;51.030;4.006;2023-02-02T07:31:57;102533.47;;;8.00;74.29
29417;BME280;28421;51.030;4.006;2023-02-02T07:34:22;102556.22;;;8.18;74.32
29417;BME280;28421;51.030;4.006;2023-02-02T07:36:48;102549.19;;;8.29;73.82
29417;BME280;28421;51.030;4.006;2023-02-02T07:39:13;102583.59;;;8.35;73.87
29417;BME280;28421;51.030;4.006;2023-02-02T07:41:39;102569.34;;;8.34;74.02
29417;BME280;28421;51.030;4.006;2023-02-02T07:44:14;102538.66;;;8.14;73.78
29417;BME280;28421;51.030;4.006;2023-02-02T07:46:42;102544.41;;;8.21;73.62
29417;BME280;28421;51.030;4.006;2023-02-02T07:49:11;102548.84;;;8.33;73.77
29417;BME280;28421;51.030;4.006;2023-02-02T07:51:37;102566.13;;;8.42;73.48
29417;BME280;28421;51.030;4.006;2023-02-02T07:54:03;102571.84;;;8.49;73.23
29417;BME280;28421;51.030;4.006;2023-02-02T07:56:28;102540.66;;;8.23;73.54
29417;BME280;28421;51.030;4.006;2023-02-02T07:58:55;102570.06;;;8.60;73.22
29417;BME280;28421;51.030;4.006;2023-02-02T08:01:21;102583.47;;;8.36;73.62
29417;BME280;28421;51.030;4.006;2023-02-02T08:03:51;102582.63;;;8.60;73.29
29417;BME280;28421;51.030;4.006;2023-02-02T08:06:26;102526.22;;;8.37;72.69
29417;BME280;28421;51.030;4.006;2023-02-02T08:08:53;102586.38;;;8.46;72.99
29417;BME280;28421;51.030;4.006;2023-02-02T08:11:20;102577.00;;;8.52;72.64
29417;BME280;28421;51.030;4.006;2023-02-02T08:13:51;102548.75;;;8.35;72.48
29417;BME280;28421;51.030;4.006;2023-02-02T08:16:17;102553.91;;;8.14;72.98
29417;BME280;28421;51.030;4.006;2023-02-02T08:18:43;102555.66;;;8.26;72.82
29417;BME280;28421;51.030;4.006;2023-02-02T08:21:09;102558.00;;;8.07;73.39
29417;BME280;28421;51.030;4.006;2023-02-02T08:23:37;102625.22;;;8.28;73.37
29417;BME280;28421;51.030;4.006;2023-02-02T08:28:31;102595.78;;;8.15;73.49
29417;BME280;28421;51.030;4.006;2023-02-02T08:31:03;102610.09;;;8.27;73.20
29417;BME280;28421;51.030;4.006;2023-02-02T08:33:28;102603.56;;;8.31;72.94
29417;BME280;28421;51.030;4.006;2023-02-02T08:35:54;102568.47;;;7.86;73.57
29417;BME280;28421;51.030;4.006;2023-02-02T08:38:19;102573.91;;;7.97;73.59
29417;BME280;28421;51.030;4.006;2023-02-02T08:40:44;102566.50;;;7.88;74.08
29417;BME280;28421;51.030;4.006;2023-02-02T08:43:10;102591.72;;;7.85;74.05
29417;BME280;28421;51.030;4.006;2023-02-02T08:45:35;102611.91;;;8.02;73.88
29417;BME280;28421;51.030;4.006;2023-02-02T08:48:01;102598.94;;;7.96;73.96
29417;BME280;28421;51.030;4.006;2023-02-02T08:50:26;102595.47;;;7.83;73.64
29417;BME280;28421;51.030;4.006;2023-02-02T08:52:52;102572.50;;;7.67;74.23
29417;BME280;28421;51.030;4.006;2023-02-02T08:55:17;102597.19;;;7.84;74.09
29417;BME280;28421;51.030;4.006;2023-02-02T08:57:42;102607.56;;;8.12;73.56
29417;BME280;28421;51.030;4.006;2023-02-02T09:00:08;102601.31;;;8.01;73.29
29417;BME280;28421;51.030;4.006;2023-02-02T09:02:35;102592.47;;;7.75;73.73
29417;BME280;28421;51.030;4.006;2023-02-02T09:05:01;102607.88;;;7.96;73.59
29417;BME280;28421;51.030;4.006;2023-02-02T09:07:26;102596.56;;;8.04;73.37
29417;BME280;28421;51.030;4.006;2023-02-02T09:09:52;102644.47;;;8.33;73.17
29417;BME280;28421;51.030;4.006;2023-02-02T09:12:20;102634.63;;;8.09;73.36
29417;BME280;28421;51.030;4.006;2023-02-02T09:14:45;102621.44;;;8.06;73.35
29417;BME280;28421;51.030;4.006;2023-02-02T09:17:11;102632.63;;;8.24;73.62
29417;BME280;28421;51.030;4.006;2023-02-02T09:19:36;102639.47;;;8.28;73.30
29417;BME280;28421;51.030;4.006;2023-02-02T09:22:02;102631.25;;;8.18;73.07
29417;BME280;28421;51.030;4.006;2023-02-02T09:24:27;102669.06;;;8.27;72.91
29417;BME280;28421;51.030;4.006;2023-02-02T09:26:53;102658.75;;;8.46;72.50
29417;BME280;28421;51.030;4.006;2023-02-02T09:29:18;102663.34;;;8.44;72.41
29417;BME280;28421;51.030;4.006;2023-02-02T09:31:44;102647.03;;;8.47;72.10
29417;BME280;28421;51.030;4.006;2023-02-02T09:34:12;102714.81;;;8.73;71.54
29417;BME280;28421;51.030;4.006;2023-02-02T09:36:38;102688.25;;;8.57;71.63
29417;BME280;28421;51.030;4.006;2023-02-02T09:39:05;102680.22;;;8.57;71.42
29417;BME280;28421;51.030;4.006;2023-02-02T09:49:24;102706.06;;;8.58;71.66
29417;BME280;28421;51.030;4.006;2023-02-02T09:51:57;102670.34;;;8.34;71.92
29417;BME280;28421;51.030;4.006;2023-02-02T09:54:28;102656.50;;;8.27;71.80
29417;BME280;28421;51.030;4.006;2023-02-02T09:56:59;102712.91;;;8.62;71.97
29417;BME280;28421;51.030;4.006;2023-02-02T09:59:32;102652.50;;;8.33;71.57
29417;BME280;28421;51.030;4.006;2023-02-02T10:02:05;102651.44;;;8.35;71.23
29417;BME280;28421;51.030;4.006;2023-02-02T10:04:37;102723.84;;;8.83;71.25
29417;BME280;28421;51.030;4.006;2023-02-02T10:07:35;102678.38;;;8.58;71.05
29417;BME280;28421;51.030;4.006;2023-02-02T10:10:11;102734.94;;;8.79;70.68
29417;BME280;28421;51.030;4.006;2023-02-02T10:12:51;102687.41;;;8.57;70.90
29417;BME280;28421;51.030;4.006;2023-02-02T10:15:36;102712.47;;;8.68;70.69
29417;BME280;28421;51.030;4.006;2023-02-02T10:18:52;102675.56;;;8.72;70.67
29417;BME280;28421;51.030;4.006;2023-02-02T10:23:45;102734.00;;;9.15;70.19
29417;BME280;28421;51.030;4.006;2023-02-02T10:29:12;102731.13;;;9.29;69.34
29417;BME280;28421;51.030;4.006;2023-02-02T10:34:37;102741.41;;;9.11;69.74
29417;BME280;28421;51.030;4.006;2023-02-02T10:40:25;102736.38;;;9.31;69.10
29417;BME280;28421;51.030;4.006;2023-02-02T10:45:49;102739.59;;;9.47;68.62
29417;BME280;28421;51.030;4.006;2023-02-02T10:48:18;102747.03;;;9.43;68.65
29417;BME280;28421;51.030;4.006;2023-02-02T10:50:51;102725.69;;;9.42;68.70
29417;BME280;28421;51.030;4.006;2023-02-02T10:53:18;102681.22;;;9.27;68.38
29417;BME280;28421;51.030;4.006;2023-02-02T10:56:09;102736.97;;;9.81;68.20
29417;BME280;28421;51.030;4.006;2023-02-02T11:01:13;102702.50;;;9.86;67.83
29417;BME280;28421;51.030;4.006;2023-02-02T11:03:42;102723.78;;;10.00;67.31
29417;BME280;28421;51.030;4.006;2023-02-02T11:06:10;102680.78;;;9.78;66.51
29417;BME280;28421;51.030;4.006;2023-02-02T11:08:54;102733.28;;;10.15;66.50
29417;BME280;28421;51.030;4.006;2023-02-02T11:11:40;102750.03;;;9.96;66.01
29417;BME280;28421;51.030;4.006;2023-02-02T11:16:33;102734.41;;;10.13;65.91
29417;BME280;28421;51.030;4.006;2023-02-02T11:18:59;102684.56;;;10.09;65.92
29417;BME280;28421;51.030;4.006;2023-02-02T11:21:31;102701.31;;;10.12;65.75
29417;BME280;28421;51.030;4.006;2023-02-02T11:26:46;102734.72;;;10.64;64.07
29417;BME280;28421;51.030;4.006;2023-02-02T11:29:32;102696.88;;;10.45;64.00
29417;BME280;28421;51.030;4.006;2023-02-02T11:32:17;102736.25;;;10.78;64.08
29417;BME280;28421;51.030;4.006;2023-02-02T11:34:43;102686.72;;;10.81;64.28
29417;BME280;28421;51.030;4.006;2023-02-02T11:37:14;102725.50;;;11.10;63.84
29417;BME280;28421;51.030;4.006;2023-02-02T11:39:41;102686.31;;;10.53;63.79
29417;BME280;28421;51.030;4.006;2023-02-02T11:42:16;102695.75;;;10.59;63.50
29417;BME280;28421;51.030;4.006;2023-02-02T11:44:49;102673.09;;;10.29;64.30
29417;BME280;28421;51.030;4.006;2023-02-02T11:47:23;102726.63;;;10.76;64.16
29417;BME280;28421;51.030;4.006;2023-02-02T11:49:50;102726.25;;;10.69;64.19
29417;BME280;28421;51.030;4.006;2023-02-02T11:52:21;102719.69;;;10.62;64.35
29417;BME280;28421;51.030;4.006;2023-02-02T11:54:54;102710.78;;;10.82;64.13
29417;BME280;28421;51.030;4.006;2023-02-02T11:57:23;102708.03;;;10.73;63.84
29417;BME280;28421;51.030;4.006;2023-02-02T12:00:05;102738.31;;;10.42;64.31
29417;BME280;28421;51.030;4.006;2023-02-02T12:02:31;102695.91;;;10.35;65.39
29417;BME280;28421;51.030;4.006;2023-02-02T12:07:35;102719.88;;;10.38;65.41
29417;BME280;28421;51.030;4.006;2023-02-02T12:10:16;102672.47;;;10.37;65.00
29417;BME280;28421;51.030;4.006;2023-02-02T12:13:02;102705.47;;;10.71;64.83
29417;BME280;28421;51.030;4.006;2023-02-02T12:21:31;102723.00;;;10.54;65.98
29417;BME280;28421;51.030;4.006;2023-02-02T12:24:22;102711.19;;;10.45;66.29
29417;BME280;28421;51.030;4.006;2023-02-02T12:32:27;102638.13;;;10.61;65.86
29417;BME280;28421;51.030;4.006;2023-02-02T12:41:02;102697.16;;;10.74;66.48
29417;BME280;28421;51.030;4.006;2023-02-02T12:43:46;102651.06;;;10.35;66.30
29417;BME280;28421;51.030;4.006;2023-02-02T12:52:14;102688.38;;;10.61;66.94
29417;BME280;28421;51.030;4.006;2023-02-02T12:58:03;102646.75;;;10.76;66.11
29417;BME280;28421;51.030;4.006;2023-02-02T13:06:22;102659.09;;;10.79;66.19
29417;BME280;28421;51.030;4.006;2023-02-02T13:11:51;102645.44;;;10.70;66.06
29417;BME280;28421;51.030;4.006;2023-02-02T13:14:29;102674.28;;;10.68;66.59
29417;BME280;28421;51.030;4.006;2023-02-02T13:17:01;102668.19;;;10.66;66.76
29417;BME280;28421;51.030;4.006;2023-02-02T13:19:38;102626.38;;;10.30;66.63
29417;BME280;28421;51.030;4.006;2023-02-02T13:22:09;102665.16;;;10.92;66.55
29417;BME280;28421;51.030;4.006;2023-02-02T13:24:40;102629.91;;;10.74;66.18
29417;BME280;28421;51.030;4.006;2023-02-02T13:27:12;102646.22;;;10.82;66.06
29417;BME280;28421;51.030;4.006;2023-02-02T13:29:52;102632.84;;;10.92;65.69
29417;BME280;28421;51.030;4.006;2023-02-02T13:32:32;102671.41;;;11.13;66.18
29417;BME280;28421;51.030;4.006;2023-02-02T13:35:09;102649.41;;;10.87;66.45
29417;BME280;28421;51.030;4.006;2023-02-02T13:37:50;102669.03;;;11.20;66.24
29417;BME280;28421;51.030;4.006;2023-02-02T13:40:30;102634.19;;;10.65;67.40
29417;BME280;28421;51.030;4.006;2023-02-02T13:57:51;102682.00;;;10.30;70.93
29417;BME280;28421;51.030;4.006;2023-02-02T14:00:27;102645.84;;;10.00;71.14
29417;BME280;28421;51.030;4.006;2023-02-02T14:02:58;102654.63;;;10.13;71.07
29417;BME280;28421;51.030;4.006;2023-02-02T14:05:32;102639.34;;;10.14;70.80
29417;BME280;28421;51.030;4.006;2023-02-02T14:08:07;102655.09;;;10.07;71.98
29417;BME280;28421;51.030;4.006;2023-02-02T14:11:01;102669.19;;;9.88;75.09
29417;BME280;28421;51.030;4.006;2023-02-02T14:13:44;102660.28;;;9.77;76.63
29417;BME280;28421;51.030;4.006;2023-02-02T14:19:00;102666.63;;;9.64;77.27
29417;BME280;28421;51.030;4.006;2023-02-02T14:24:01;102649.25;;;9.35;78.11
29417;BME280;28421;51.030;4.006;2023-02-02T14:26:46;102657.22;;;9.48;78.06
29417;BME280;28421;51.030;4.006;2023-02-02T14:34:33;102689.59;;;9.80;76.48
29417;BME280;28421;51.030;4.006;2023-02-02T14:45:43;102660.28;;;9.77;74.51
29417;BME280;28421;51.030;4.006;2023-02-02T14:48:16;102708.47;;;10.23;74.57
29417;BME280;28421;51.030;4.006;2023-02-02T14:50:54;102675.28;;;10.02;74.16
29417;BME280;28421;51.030;4.006;2023-02-02T14:53:30;102699.56;;;10.11;74.42
29417;BME280;28421;51.030;4.006;2023-02-02T14:56:14;102637.31;;;9.73;73.85
29417;BME280;28421;51.030;4.006;2023-02-02T14:58:45;102710.22;;;10.02;73.80
29417;BME280;28421;51.030;4.006;2023-02-02T15:03:49;102708.50;;;10.34;73.34
29417;BME280;28421;51.030;4.006;2023-02-02T15:17:37;102714.97;;;10.20;73.31
29417;BME280;28421;51.030;4.006;2023-02-02T15:20:23;102721.31;;;10.19;73.17
29417;BME280;28421;51.030;4.006;2023-02-02T15:23:22;102724.13;;;10.18;73.17
29417;BME280;28421;51.030;4.006;2023-02-02T15:26:00;102708.13;;;10.28;73.11
29417;BME280;28421;51.030;4.006;2023-02-02T15:28:42;102724.03;;;10.42;72.68
29417;BME280;28421;51.030;4.006;2023-02-02T15:31:24;102719.13;;;10.36;73.00
29417;BME280;28421;51.030;4.006;2023-02-02T15:34:08;102732.31;;;10.39;73.07
29417;BME280;28421;51.030;4.006;2023-02-02T15:36:38;102693.47;;;10.20;72.55
29417;BME280;28421;51.030;4.006;2023-02-02T15:39:30;102733.09;;;10.30;72.91
29417;BME280;28421;51.030;4.006;2023-02-02T15:41:57;102710.56;;;10.19;72.65
29417;BME280;28421;51.030;4.006;2023-02-02T15:44:41;102726.81;;;10.52;72.50
29417;BME280;28421;51.030;4.006;2023-02-02T15:47:11;102721.06;;;10.23;72.82
29417;BME280;28421;51.030;4.006;2023-02-02T15:49:39;102706.41;;;10.15;72.92
29417;BME280;28421;51.030;4.006;2023-02-02T15:52:15;102732.66;;;10.23;73.54
29417;BME280;28421;51.030;4.006;2023-02-02T15:54:54;102737.09;;;10.13;73.80
29417;BME280;28421;51.030;4.006;2023-02-02T15:57:31;102727.44;;;10.21;73.32
29417;BME280;28421;51.030;4.006;2023-02-02T15:59:59;102693.72;;;10.06;73.67
29417;BME280;28421;51.030;4.006;2023-02-02T16:02:33;102732.31;;;10.05;73.70
29417;BME280;28421;51.030;4.006;2023-02-02T16:05:00;102706.19;;;9.85;73.63
29417;BME280;28421;51.030;4.006;2023-02-02T16:07:30;102731.84;;;9.89;73.93
29417;BME280;28421;51.030;4.006;2023-02-02T16:10:03;102724.75;;;9.88;74.24
29417;BME280;28421;51.030;4.006;2023-02-02T16:12:33;102678.56;;;9.60;73.93
29417;BME280;28421;51.030;4.006;2023-02-02T16:14:58;102723.78;;;9.89;73.79
29417;BME280;28421;51.030;4.006;2023-02-02T16:17:30;102669.56;;;9.73;73.43
29417;BME280;28421;51.030;4.006;2023-02-02T16:20:02;102707.78;;;9.87;73.82
29417;BME280;28421;51.030;4.006;2023-02-02T16:22:31;102714.63;;;9.91;73.71
29417;BME280;28421;51.030;4.006;2023-02-02T16:25:00;102724.97;;;10.07;73.61
29417;BME280;28421;51.030;4.006;2023-02-02T16:27:28;102708.97;;;9.94;73.32
29417;BME280;28421;51.030;4.006;2023-02-02T16:29:58;102721.22;;;9.76;74.23
29417;BME280;28421;51.030;4.006;2023-02-02T16:32:30;102727.41;;;9.65;74.51
29417;BME280;28421;51.030;4.006;2023-02-02T16:34:56;102729.13;;;9.66;74.86
29417;BME280;28421;51.030;4.006;2023-02-02T16:37:30;102759.91;;;9.85;74.70
29417;BME280;28421;51.030;4.006;2023-02-02T16:40:28;102717.63;;;9.53;75.11
29417;BME280;28421;51.030;4.006;2023-02-02T16:43:17;102770.19;;;9.80;75.20
29417;BME280;28421;51.030;4.006;2023-02-02T16:45:51;102749.66;;;9.79;74.57
29417;BME280;28421;51.030;4.006;2023-02-02T16:53:33;102729.22;;;9.54;75.13
29417;BME280;28421;51.030;4.006;2023-02-02T16:56:00;102725.63;;;9.31;75.88
29417;BME280;28421;51.030;4.006;2023-02-02T16:58:26;102772.22;;;9.65;75.40
29417;BME280;28421;51.030;4.006;2023-02-02T17:01:04;102699.53;;;8.98;76.49
29417;BME280;28421;51.030;4.006;2023-02-02T17:03:35;102772.25;;;9.41;76.21
29417;BME280;28421;51.030;4.006;2023-02-02T17:06:02;102731.94;;;9.18;77.05
29417;BME280;28421;51.030;4.006;2023-02-02T17:08:31;102740.13;;;9.17;76.86
29417;BME280;28421;51.030;4.006;2023-02-02T17:11:05;102744.22;;;9.10;77.26
29417;BME280;28421;51.030;4.006;2023-02-02T17:13:35;102745.09;;;9.10;77.88
29417;BME280;28421;51.030;4.006;2023-02-02T17:16:01;102775.22;;;9.38;77.00
29417;BME280;28421;51.030;4.006;2023-02-02T17:18:27;102788.63;;;9.38;76.99
29417;BME280;28421;51.030;4.006;2023-02-02T17:20:55;102767.50;;;9.33;76.80
29417;BME280;28421;51.030;4.006;2023-02-02T17:23:29;102792.19;;;9.50;76.87
29417;BME280;28421;51.030;4.006;2023-02-02T17:25:58;102762.94;;;9.23;77.03
29417;BME280;28421;51.030;4.006;2023-02-02T17:28:25;102733.50;;;9.10;77.19
29417;BME280;28421;51.030;4.006;2023-02-02T17:31:12;102775.72;;;9.43;76.77
29417;BME280;28421;51.030;4.006;2023-02-02T17:33:38;102792.59;;;9.56;76.56
29417;BME280;28421;51.030;4.006;2023-02-02T17:36:04;102802.81;;;9.51;77.03
29417;BME280;28421;51.030;4.006;2023-02-02T17:38:30;102797.34;;;9.29;77.45
29417;BME280;28421;51.030;4.006;2023-02-02T17:41:01;102789.66;;;9.24;77.39
29417;BME280;28421;51.030;4.006;2023-02-02T17:43:31;102793.47;;;9.33;77.58
29417;BME280;28421;51.030;4.006;2023-02-02T17:45:57;102786.94;;;9.13;77.80
29417;BME280;28421;51.030;4.006;2023-02-02T17:48:22;102767.56;;;9.20;77.47
29417;BME280;28421;51.030;4.006;2023-02-02T17:50:48;102746.06;;;9.09;77.39
29417;BME280;28421;51.030;4.006;2023-02-02T17:53:18;102789.91;;;9.21;77.58
29417;BME280;28421;51.030;4.006;2023-02-02T17:55:45;102762.16;;;8.85;78.44
29417;BME280;28421;51.030;4.006;2023-02-02T17:58:12;102788.16;;;9.09;78.50
29417;BME280;28421;51.030;4.006;2023-02-02T18:00:45;102756.88;;;8.96;78.61
29417;BME280;28421;51.030;4.006;2023-02-02T18:03:23;102758.91;;;8.93;78.17
29417;BME280;28421;51.030;4.006;2023-02-02T18:05:50;102739.84;;;8.85;78.22
29417;BME280;28421;51.030;4.006;2023-02-02T18:08:16;102766.13;;;8.92;78.42
29417;BME280;28421;51.030;4.006;2023-02-02T18:10:42;102761.31;;;9.09;78.01
29417;BME280;28421;51.030;4.006;2023-02-02T18:13:11;102758.84;;;9.06;78.03
29417;BME280;28421;51.030;4.006;2023-02-02T18:15:38;102756.75;;;8.98;78.33
29417;BME280;28421;51.030;4.006;2023-02-02T18:18:03;102767.88;;;9.05;78.37
29417;BME280;28421;51.030;4.006;2023-02-02T18:20:29;102756.03;;;9.07;78.27
29417;BME280;28421;51.030;4.006;2023-02-02T18:22:54;102788.59;;;9.27;78.16
29417;BME280;28421;51.030;4.006;2023-02-02T18:25:19;102768.03;;;9.14;78.38
29417;BME280;28421;51.030;4.006;2023-02-02T18:27:45;102775.09;;;9.15;78.42
29417;BME280;28421;51.030;4.006;2023-02-02T18:30:11;102760.91;;;9.02;78.75
29417;BME280;28421;51.030;4.006;2023-02-02T18:32:38;102799.03;;;9.18;78.58
29417;BME280;28421;51.030;4.006;2023-02-02T18:35:05;102741.16;;;9.03;78.48
29417;BME280;28421;51.030;4.006;2023-02-02T18:37:30;102750.84;;;9.17;78.33
29417;BME280;28421;51.030;4.006;2023-02-02T18:39:56;102788.34;;;9.30;78.70
29417;BME280;28421;51.030;4.006;2023-02-02T18:42:22;102741.84;;;8.94;78.50
29417;BME280;28421;51.030;4.006;2023-02-02T18:44:47;102753.44;;;8.94;79.13
29417;BME280;28421;51.030;4.006;2023-02-02T18:47:13;102774.59;;;9.10;79.05
29417;BME280;28421;51.030;4.006;2023-02-02T18:49:38;102754.81;;;9.00;79.26
29417;BME280;28421;51.030;4.006;2023-02-02T18:52:04;102779.41;;;9.18;79.00
29417;BME280;28421;51.030;4.006;2023-02-02T18:54:29;102747.00;;;8.97;79.29
29417;BME280;28421;51.030;4.006;2023-02-02T18:56:56;102762.31;;;8.95;79.29
29417;BME280;28421;51.030;4.006;2023-02-02T18:59:21;102784.34;;;9.11;79.32
29417;BME280;28421;51.030;4.006;2023-02-02T19:01:47;102761.13;;;8.99;79.78
29417;BME280;28421;51.030;4.006;2023-02-02T19:04:12;102751.09;;;8.90;79.50
29417;BME280;28421;51.030;4.006;2023-02-02T19:06:38;102778.13;;;9.11;79.14
29417;BME280;28421;51.030;4.006;2023-02-02T19:09:22;102804.97;;;9.35;78.92
29417;BME280;28421;51.030;4.006;2023-02-02T19:11:50;102762.22;;;8.96;79.21
29417;BME280;28421;51.030;4.006;2023-02-02T19:14:21;102804.47;;;9.30;79.01
29417;BME280;28421;51.030;4.006;2023-02-02T19:16:52;102757.03;;;9.06;79.06
29417;BME280;28421;51.030;4.006;2023-02-02T19:19:26;102805.13;;;9.20;79.44
29417;BME280;28421;51.030;4.006;2023-02-02T19:21:58;102776.81;;;9.16;79.11
29417;BME280;28421;51.030;4.006;2023-02-02T19:24:27;102802.97;;;9.26;79.31
29417;BME280;28421;51.030;4.006;2023-02-02T19:26:55;102770.59;;;9.16;79.24
29417;BME280;28421;51.030;4.006;2023-02-02T19:29:22;102740.41;;;9.01;78.92
29417;BME280;28421;51.030;4.006;2023-02-02T19:31:55;102746.34;;;8.93;79.10
29417;BME280;28421;51.030;4.006;2023-02-02T19:34:22;102760.69;;;9.05;79.17
29417;BME280;28421;51.030;4.006;2023-02-02T19:36:48;102768.88;;;9.15;78.94
29417;BME280;28421;51.030;4.006;2023-02-02T19:39:21;102758.22;;;9.02;79.18
29417;BME280;28421;51.030;4.006;2023-02-02T19:41:53;102722.66;;;8.87;79.00
29417;BME280;28421;51.030;4.006;2023-02-02T19:44:30;102762.38;;;9.06;78.87
29417;BME280;28421;51.030;4.006;2023-02-02T19:46:56;102778.47;;;9.30;78.90
29417;BME280;28421;51.030;4.006;2023-02-02T19:49:32;102773.69;;;9.23;79.08
29417;BME280;28421;51.030;4.006;2023-02-02T19:52:01;102754.13;;;9.09;78.89
29417;BME280;28421;51.030;4.006;2023-02-02T19:54:37;102748.91;;;8.95;78.96
29417;BME280;28421;51.030;4.006;2023-02-02T19:57:18;102782.53;;;9.12;79.33
29417;BME280;28421;51.030;4.006;2023-02-02T19:59:49;102780.13;;;9.20;78.88
29417;BME280;28421;51.030;4.006;2023-02-02T20:04:59;102721.31;;;8.82;79.08
29417;BME280;28421;51.030;4.006;2023-02-02T20:07:27;102779.69;;;9.02;79.71
29417;BME280;28421;51.030;4.006;2023-02-02T20:10:08;102745.84;;;8.88;79.16
29417;BME280;28421;51.030;4.006;2023-02-02T20:12:37;102782.09;;;9.18;79.14
29417;BME280;28421;51.030;4.006;2023-02-02T20:15:27;102763.38;;;9.05;79.37
29417;BME280;28421;51.030;4.006;2023-02-02T20:18:14;102745.03;;;8.99;78.99
29417;BME280;28421;51.030;4.006;2023-02-02T20:20:43;102759.41;;;9.22;78.43
29417;BME280;28421;51.030;4.006;2023-02-02T20:25:58;102757.78;;;9.08;78.47